sensor_id;sensor_type;location;lat;lon;timestamp;pressure;altitude;pressure_sealevel;temperature;humidity
47742;BME280;33504;52.066;6.096;2023-12-04T00:01:13;101297.20;;;0.81;54.35
47742;BME280;33504;52.066;6.096;2023-12-04T00:03:40;101295.64;;;1.26;53.49
47742;BME280;33504;52.066;6.096;2023-12-04T00:06:08;101288.64;;;1.78;53.42
47742;BME280;33504;52.066;6.096;2023-12-04T00:08:36;101282.83;;;1.46;53.46
47742;BME280;33504;52.066;6.096;2023-12-04T00:11:03;101279.07;;;1.14;53.36
47742;BME280;33504;52.066;6.096;2023-12-04T00:13:30;101275.30;;;1.51;52.61
47742;BME280;33504;52.066;6.096;2023-12-04T00:15:57;101271.26;;;1.26;53.11
47742;BME280;33504;52.066;6.096;2023-12-04T00:18:24;101273.60;;;1.39;52.74
47742;BME280;33504;52.066;6.096;2023-12-04T00:20:51;101279.12;;;1.34;52.90
47742;BME280;33504;52.066;6.096;2023-12-04T00:23:19;101281.69;;;1.31;53.19
47742;BME280;33504;52.066;6.096;2023-12-04T00:25:46;101276.30;;;1.21;52.98
47742;BME280;33504;52.066;6.096;2023-12-04T00:28:13;101273.91;;;1.27;53.12
47742;BME280;33504;52.066;6.096;2023-12-04T00:30:40;101268.33;;;1.10;52.71
47742;BME280;33504;52.066;6.096;2023-12-04T00:33:07;101262.14;;;1.42;53.08
47742;BME280;33504;52.066;6.096;2023-12-04T00:35:34;101257.92;;;1.12;52.96
47742;BME280;33504;52.066;6.096;2023-12-04T00:38:01;101252.54;;;1.37;52.47
47742;BME280;33504;52.066;6.096;2023-12-04T00:40:28;101249.47;;;1.62;52.23
47742;BME280;33504;52.066;6.096;2023-12-04T00:42:55;101253.77;;;1.67;51.63
47742;BME280;33504;52.066;6.096;2023-12-04T00:45:22;101253.55;;;1.46;51.94
47742;BME280;33504;52.066;6.096;2023-12-04T00:47:49;101250.73;;;1.13;52.54
47742;BME280;33504;52.066;6.096;2023-12-04T00:50:16;101249.12;;;1.07;53.54
47742;BME280;33504;52.066;6.096;2023-12-04T00:52:44;101251.66;;;0.85;53.35
47742;BME280;33504;52.066;6.096;2023-12-04T00:55:11;101251.13;;;1.22;52.48
47742;BME280;33504;52.066;6.096;2023-12-04T00:57:37;101254.02;;;1.10;52.82
47742;BME280;33504;52.066;6.096;2023-12-04T01:00:05;101254.95;;;1.27;52.56
47742;BME280;33504;52.066;6.096;2023-12-04T01:02:33;101246.85;;;1.76;51.89
47742;BME280;33504;52.066;6.096;2023-12-04T01:05:00;101246.69;;;1.66;51.89
47742;BME280;33504;52.066;6.096;2023-12-04T01:07:27;101240.53;;;1.86;51.49
47742;BME280;33504;52.066;6.096;2023-12-04T01:09:54;101233.15;;;1.62;51.21
47742;BME280;33504;52.066;6.096;2023-12-04T01:12:21;101237.62;;;1.89;51.48
47742;BME280;33504;52.066;6.096;2023-12-04T01:14:48;101240.45;;;1.62;51.33
47742;BME280;33504;52.066;6.096;2023-12-04T01:17:15;101235.10;;;1.76;51.14
47742;BME280;33504;52.066;6.096;2023-12-04T01:19:42;101232.19;;;2.19;50.65
47742;BME280;33504;52.066;6.096;2023-12-04T01:22:09;101233.91;;;2.02;50.56
47742;BME280;33504;52.066;6.096;2023-12-04T01:24:36;101231.70;;;2.03;50.42
47742;BME280;33504;52.066;6.096;2023-12-04T01:27:04;101228.58;;;1.48;51.60
47742;BME280;33504;52.066;6.096;2023-12-04T01:29:31;101227.08;;;2.23;49.93
47742;BME280;33504;52.066;6.096;2023-12-04T01:31:58;101226.45;;;1.71;50.76
47742;BME280;33504;52.066;6.096;2023-12-04T01:34:25;101223.24;;;1.68;50.91
47742;BME280;33504;52.066;6.096;2023-12-04T01:36:52;101217.90;;;1.79;50.63
47742;BME280;33504;52.066;6.096;2023-12-04T01:39:19;101214.93;;;2.03;50.12
47742;BME280;33504;52.066;6.096;2023-12-04T01:41:46;101209.33;;;1.80;50.50
47742;BME280;33504;52.066;6.096;2023-12-04T01:44:13;101208.12;;;2.10;50.25
47742;BME280;33504;52.066;6.096;2023-12-04T01:46:41;101206.38;;;1.61;50.71
47742;BME280;33504;52.066;6.096;2023-12-04T01:49:08;101200.26;;;1.38;51.13
47742;BME280;33504;52.066;6.096;2023-12-04T01:51:35;101198.03;;;1.80;50.57
47742;BME280;33504;52.066;6.096;2023-12-04T01:54:03;101193.28;;;1.91;50.53
47742;BME280;33504;52.066;6.096;2023-12-04T01:56:32;101188.44;;;2.08;50.36
47742;BME280;33504;52.066;6.096;2023-12-04T01:59:00;101191.90;;;1.51;50.70
47742;BME280;33504;52.066;6.096;2023-12-04T02:01:27;101188.98;;;1.65;50.60
47742;BME280;33504;52.066;6.096;2023-12-04T02:03:55;101179.66;;;1.66;50.46
47742;BME280;33504;52.066;6.096;2023-12-04T02:06:24;101172.90;;;1.79;50.39
47742;BME280;33504;52.066;6.096;2023-12-04T02:08:51;101167.97;;;2.23;49.71
47742;BME280;33504;52.066;6.096;2023-12-04T02:11:18;101164.84;;;1.93;49.86
47742;BME280;33504;52.066;6.096;2023-12-04T02:13:46;101161.92;;;2.05;50.10
47742;BME280;33504;52.066;6.096;2023-12-04T02:16:14;101165.73;;;1.92;50.24
47742;BME280;33504;52.066;6.096;2023-12-04T02:18:43;101165.90;;;1.66;50.25
47742;BME280;33504;52.066;6.096;2023-12-04T02:21:10;101162.52;;;1.72;50.21
47742;BME280;33504;52.066;6.096;2023-12-04T02:23:37;101161.66;;;2.28;49.59
47742;BME280;33504;52.066;6.096;2023-12-04T02:26:10;101153.40;;;2.41;49.64
47742;BME280;33504;52.066;6.096;2023-12-04T02:28:41;101148.20;;;1.97;49.16
47742;BME280;33504;52.066;6.096;2023-12-04T02:31:12;101145.22;;;2.10;49.43
47742;BME280;33504;52.066;6.096;2023-12-04T02:33:40;101146.02;;;2.46;48.97
47742;BME280;33504;52.066;6.096;2023-12-04T02:36:10;101143.61;;;2.03;49.23
47742;BME280;33504;52.066;6.096;2023-12-04T02:38:37;101143.59;;;2.50;49.00
47742;BME280;33504;52.066;6.096;2023-12-04T02:41:06;101139.61;;;2.69;48.63
47742;BME280;33504;52.066;6.096;2023-12-04T02:43:33;101138.80;;;2.33;48.88
47742;BME280;33504;52.066;6.096;2023-12-04T02:46:00;101131.05;;;2.31;49.20
47742;BME280;33504;52.066;6.096;2023-12-04T02:48:28;101126.77;;;2.74;48.96
47742;BME280;33504;52.066;6.096;2023-12-04T02:50:55;101119.29;;;2.31;48.56
47742;BME280;33504;52.066;6.096;2023-12-04T02:53:22;101116.30;;;2.50;48.31
47742;BME280;33504;52.066;6.096;2023-12-04T02:55:49;101113.06;;;2.33;48.38
47742;BME280;33504;52.066;6.096;2023-12-04T02:58:17;101112.43;;;1.94;48.76
47742;BME280;33504;52.066;6.096;2023-12-04T03:00:44;101104.90;;;2.56;48.54
47742;BME280;33504;52.066;6.096;2023-12-04T03:03:11;101100.57;;;2.41;48.70
47742;BME280;33504;52.066;6.096;2023-12-04T03:05:38;101098.25;;;2.38;48.70
47742;BME280;33504;52.066;6.096;2023-12-04T03:08:05;101093.37;;;2.36;48.43
47742;BME280;33504;52.066;6.096;2023-12-04T03:10:32;101092.70;;;2.55;48.30
47742;BME280;33504;52.066;6.096;2023-12-04T03:12:59;101090.59;;;2.00;48.70
47742;BME280;33504;52.066;6.096;2023-12-04T03:15:26;101086.45;;;2.03;48.69
47742;BME280;33504;52.066;6.096;2023-12-04T03:17:54;101082.33;;;1.76;49.28
47742;BME280;33504;52.066;6.096;2023-12-04T03:20:21;101075.27;;;2.14;48.72
47742;BME280;33504;52.066;6.096;2023-12-04T03:22:48;101074.99;;;2.23;48.48
47742;BME280;33504;52.066;6.096;2023-12-04T03:25:15;101072.10;;;2.21;47.97
47742;BME280;33504;52.066;6.096;2023-12-04T03:27:43;101074.11;;;1.78;49.23
47742;BME280;33504;52.066;6.096;2023-12-04T03:30:10;101074.36;;;2.04;49.06
47742;BME280;33504;52.066;6.096;2023-12-04T03:32:37;101067.34;;;2.32;48.99
47742;BME280;33504;52.066;6.096;2023-12-04T03:35:04;101064.68;;;2.31;48.67
47742;BME280;33504;52.066;6.096;2023-12-04T03:37:31;101065.39;;;2.09;48.26
47742;BME280;33504;52.066;6.096;2023-12-04T03:39:59;101061.96;;;2.23;48.36
47742;BME280;33504;52.066;6.096;2023-12-04T03:42:26;101061.55;;;2.44;48.22
47742;BME280;33504;52.066;6.096;2023-12-04T03:44:53;101058.03;;;2.10;48.60
47742;BME280;33504;52.066;6.096;2023-12-04T03:47:20;101060.48;;;2.05;48.47
47742;BME280;33504;52.066;6.096;2023-12-04T03:49:46;101060.64;;;2.48;48.25
47742;BME280;33504;52.066;6.096;2023-12-04T03:52:14;101055.62;;;2.06;48.41
47742;BME280;33504;52.066;6.096;2023-12-04T03:54:41;101052.73;;;2.20;48.36
47742;BME280;33504;52.066;6.096;2023-12-04T03:57:08;101048.98;;;2.15;48.34
47742;BME280;33504;52.066;6.096;2023-12-04T03:59:35;101051.15;;;1.62;48.83
47742;BME280;33504;52.066;6.096;2023-12-04T04:02:02;101042.25;;;1.84;48.47
47742;BME280;33504;52.066;6.096;2023-12-04T04:04:29;101042.08;;;1.84;48.60
47742;BME280;33504;52.066;6.096;2023-12-04T04:06:55;101037.35;;;2.35;48.41
47742;BME280;33504;52.066;6.096;2023-12-04T04:09:22;101034.83;;;2.25;47.85
47742;BME280;33504;52.066;6.096;2023-12-04T04:11:49;101032.19;;;1.92;48.14
47742;BME280;33504;52.066;6.096;2023-12-04T04:14:16;101033.87;;;2.60;47.49
47742;BME280;33504;52.066;6.096;2023-12-04T04:16:43;101029.48;;;2.18;47.93
47742;BME280;33504;52.066;6.096;2023-12-04T04:19:10;101029.62;;;2.17;47.92
47742;BME280;33504;52.066;6.096;2023-12-04T04:21:39;101026.31;;;2.18;47.64
47742;BME280;33504;52.066;6.096;2023-12-04T04:24:07;101019.24;;;2.41;47.61
47742;BME280;33504;52.066;6.096;2023-12-04T04:26:34;101017.78;;;2.46;47.90
47742;BME280;33504;52.066;6.096;2023-12-04T04:29:01;101018.00;;;2.36;47.61
47742;BME280;33504;52.066;6.096;2023-12-04T04:31:28;101017.32;;;1.80;48.03
47742;BME280;33504;52.066;6.096;2023-12-04T04:33:55;101011.68;;;2.13;47.46
47742;BME280;33504;52.066;6.096;2023-12-04T04:36:22;101005.44;;;1.95;48.13
47742;BME280;33504;52.066;6.096;2023-12-04T04:38:49;101001.28;;;2.31;47.67
47742;BME280;33504;52.066;6.096;2023-12-04T04:41:16;100997.01;;;2.21;47.93
47742;BME280;33504;52.066;6.096;2023-12-04T04:43:43;100993.82;;;2.09;47.95
47742;BME280;33504;52.066;6.096;2023-12-04T04:46:11;100990.48;;;1.69;47.61
47742;BME280;33504;52.066;6.096;2023-12-04T04:48:38;100988.85;;;1.85;48.13
47742;BME280;33504;52.066;6.096;2023-12-04T04:51:06;100983.37;;;2.08;47.36
47742;BME280;33504;52.066;6.096;2023-12-04T04:53:33;100984.96;;;2.07;47.98
47742;BME280;33504;52.066;6.096;2023-12-04T04:56:00;100982.30;;;1.98;48.07
47742;BME280;33504;52.066;6.096;2023-12-04T04:58:27;100979.57;;;1.51;48.20
47742;BME280;33504;52.066;6.096;2023-12-04T05:00:54;100973.50;;;1.45;48.09
47742;BME280;33504;52.066;6.096;2023-12-04T05:03:22;100973.63;;;1.79;47.57
47742;BME280;33504;52.066;6.096;2023-12-04T05:05:49;100969.44;;;1.26;48.04
47742;BME280;33504;52.066;6.096;2023-12-04T05:08:16;100967.32;;;1.77;47.45
47742;BME280;33504;52.066;6.096;2023-12-04T05:10:43;100967.93;;;1.50;47.43
47742;BME280;33504;52.066;6.096;2023-12-04T05:13:10;100962.62;;;1.44;47.54
47742;BME280;33504;52.066;6.096;2023-12-04T05:15:37;100966.58;;;1.41;47.93
47742;BME280;33504;52.066;6.096;2023-12-04T05:18:05;100963.73;;;1.46;47.90
47742;BME280;33504;52.066;6.096;2023-12-04T05:20:32;100964.25;;;1.92;46.98
47742;BME280;33504;52.066;6.096;2023-12-04T05:22:58;100964.60;;;1.46;47.45
47742;BME280;33504;52.066;6.096;2023-12-04T05:25:25;100962.51;;;1.61;46.89
47742;BME280;33504;52.066;6.096;2023-12-04T05:27:53;100960.93;;;1.71;46.74
47742;BME280;33504;52.066;6.096;2023-12-04T05:30:20;100964.02;;;1.32;47.26
47742;BME280;33504;52.066;6.096;2023-12-04T05:32:47;100966.38;;;1.57;47.41
47742;BME280;33504;52.066;6.096;2023-12-04T05:35:15;100965.71;;;1.49;47.33
47742;BME280;33504;52.066;6.096;2023-12-04T05:37:42;100966.34;;;1.81;46.42
47742;BME280;33504;52.066;6.096;2023-12-04T05:40:10;100957.65;;;1.79;46.67
47742;BME280;33504;52.066;6.096;2023-12-04T05:42:37;100958.99;;;1.46;46.87
47742;BME280;33504;52.066;6.096;2023-12-04T05:45:06;100955.35;;;1.90;46.28
47742;BME280;33504;52.066;6.096;2023-12-04T05:47:33;100948.07;;;1.62;46.19
47742;BME280;33504;52.066;6.096;2023-12-04T05:49:59;100951.23;;;1.82;46.12
47742;BME280;33504;52.066;6.096;2023-12-04T05:52:27;100946.87;;;1.45;45.91
47742;BME280;33504;52.066;6.096;2023-12-04T05:54:54;100941.51;;;1.75;46.14
47742;BME280;33504;52.066;6.096;2023-12-04T05:57:21;100939.64;;;1.80;46.11
47742;BME280;33504;52.066;6.096;2023-12-04T05:59:48;100937.56;;;1.80;46.16
47742;BME280;33504;52.066;6.096;2023-12-04T06:02:15;100936.63;;;1.70;46.21
47742;BME280;33504;52.066;6.096;2023-12-04T06:04:42;100933.67;;;1.60;46.21
47742;BME280;33504;52.066;6.096;2023-12-04T06:07:10;100924.37;;;1.70;46.00
47742;BME280;33504;52.066;6.096;2023-12-04T06:09:37;100916.05;;;1.85;45.61
47742;BME280;33504;52.066;6.096;2023-12-04T06:12:05;100920.32;;;1.50;46.08
47742;BME280;33504;52.066;6.096;2023-12-04T06:14:32;100912.70;;;1.69;46.09
47742;BME280;33504;52.066;6.096;2023-12-04T06:16:58;100910.60;;;1.88;45.90
47742;BME280;33504;52.066;6.096;2023-12-04T06:19:28;100909.03;;;2.04;45.16
47742;BME280;33504;52.066;6.096;2023-12-04T06:21:55;100907.71;;;2.18;44.36
47742;BME280;33504;52.066;6.096;2023-12-04T06:24:22;100909.26;;;1.53;45.57
47742;BME280;33504;52.066;6.096;2023-12-04T06:26:50;100903.15;;;1.52;45.54
47742;BME280;33504;52.066;6.096;2023-12-04T06:29:18;100899.41;;;1.71;45.49
47742;BME280;33504;52.066;6.096;2023-12-04T06:31:46;100898.52;;;1.66;45.41
47742;BME280;33504;52.066;6.096;2023-12-04T06:34:14;100894.05;;;1.63;45.55
47742;BME280;33504;52.066;6.096;2023-12-04T06:36:41;100898.22;;;1.52;45.41
47742;BME280;33504;52.066;6.096;2023-12-04T06:39:10;100898.13;;;1.84;45.28
47742;BME280;33504;52.066;6.096;2023-12-04T06:41:38;100896.05;;;1.54;45.46
47742;BME280;33504;52.066;6.096;2023-12-04T06:44:06;100885.88;;;1.86;45.05
47742;BME280;33504;52.066;6.096;2023-12-04T06:46:37;100883.56;;;1.24;45.08
47742;BME280;33504;52.066;6.096;2023-12-04T06:49:06;100886.53;;;1.90;44.25
47742;BME280;33504;52.066;6.096;2023-12-04T06:51:33;100878.55;;;1.88;44.54
47742;BME280;33504;52.066;6.096;2023-12-04T06:54:00;100873.91;;;1.50;45.31
47742;BME280;33504;52.066;6.096;2023-12-04T06:56:28;100869.20;;;1.82;45.33
47742;BME280;33504;52.066;6.096;2023-12-04T06:58:55;100864.70;;;2.10;44.51
47742;BME280;33504;52.066;6.096;2023-12-04T07:01:22;100861.02;;;1.93;44.06
47742;BME280;33504;52.066;6.096;2023-12-04T07:03:49;100859.38;;;1.74;44.10
47742;BME280;33504;52.066;6.096;2023-12-04T07:06:16;100859.26;;;1.77;44.08
47742;BME280;33504;52.066;6.096;2023-12-04T07:08:44;100853.33;;;2.01;43.93
47742;BME280;33504;52.066;6.096;2023-12-04T07:11:11;100850.93;;;2.04;43.36
47742;BME280;33504;52.066;6.096;2023-12-04T07:13:40;100844.15;;;1.87;43.87
47742;BME280;33504;52.066;6.096;2023-12-04T07:16:08;100850.87;;;1.64;44.04
47742;BME280;33504;52.066;6.096;2023-12-04T07:18:35;100848.20;;;1.80;44.53
47742;BME280;33504;52.066;6.096;2023-12-04T07:21:03;100847.76;;;1.72;43.67
47742;BME280;33504;52.066;6.096;2023-12-04T07:23:30;100847.18;;;1.87;43.25
47742;BME280;33504;52.066;6.096;2023-12-04T07:25:58;100844.99;;;1.84;42.97
47742;BME280;33504;52.066;6.096;2023-12-04T07:28:25;100841.34;;;2.06;42.28
47742;BME280;33504;52.066;6.096;2023-12-04T07:30:53;100840.89;;;1.92;43.40
47742;BME280;33504;52.066;6.096;2023-12-04T07:33:20;100842.05;;;2.48;42.83
47742;BME280;33504;52.066;6.096;2023-12-04T07:35:48;100836.48;;;2.42;42.74
47742;BME280;33504;52.066;6.096;2023-12-04T07:38:15;100843.24;;;2.34;42.34
47742;BME280;33504;52.066;6.096;2023-12-04T07:40:42;100835.37;;;2.34;41.73
47742;BME280;33504;52.066;6.096;2023-12-04T07:43:10;100834.49;;;2.43;41.59
47742;BME280;33504;52.066;6.096;2023-12-04T07:45:37;100829.68;;;2.41;41.86
47742;BME280;33504;52.066;6.096;2023-12-04T07:48:05;100826.36;;;1.77;42.73
47742;BME280;33504;52.066;6.096;2023-12-04T07:50:32;100825.94;;;2.42;42.14
47742;BME280;33504;52.066;6.096;2023-12-04T07:53:00;100814.93;;;2.01;41.71
47742;BME280;33504;52.066;6.096;2023-12-04T07:55:27;100818.51;;;1.97;42.27
47742;BME280;33504;52.066;6.096;2023-12-04T07:57:54;100813.87;;;1.75;41.99
47742;BME280;33504;52.066;6.096;2023-12-04T08:00:21;100809.61;;;2.55;41.91
47742;BME280;33504;52.066;6.096;2023-12-04T08:02:48;100807.97;;;2.05;42.23
47742;BME280;33504;52.066;6.096;2023-12-04T08:05:15;100802.88;;;2.01;42.10
47742;BME280;33504;52.066;6.096;2023-12-04T08:07:42;100802.18;;;2.33;42.26
47742;BME280;33504;52.066;6.096;2023-12-04T08:10:09;100799.31;;;2.30;42.22
47742;BME280;33504;52.066;6.096;2023-12-04T08:12:36;100796.31;;;2.28;41.60
47742;BME280;33504;52.066;6.096;2023-12-04T08:15:05;100793.22;;;1.97;42.24
47742;BME280;33504;52.066;6.096;2023-12-04T08:17:32;100794.39;;;2.13;42.51
47742;BME280;33504;52.066;6.096;2023-12-04T08:20:00;100792.28;;;1.79;42.53
47742;BME280;33504;52.066;6.096;2023-12-04T08:22:27;100793.88;;;2.30;42.42
47742;BME280;33504;52.066;6.096;2023-12-04T08:24:54;100793.32;;;2.09;43.02
47742;BME280;33504;52.066;6.096;2023-12-04T08:27:21;100795.64;;;2.25;43.33
47742;BME280;33504;52.066;6.096;2023-12-04T08:29:48;100808.04;;;2.18;42.62
47742;BME280;33504;52.066;6.096;2023-12-04T08:32:16;100801.37;;;2.08;42.33
47742;BME280;33504;52.066;6.096;2023-12-04T08:34:43;100813.08;;;2.10;42.48
47742;BME280;33504;52.066;6.096;2023-12-04T08:37:10;100808.88;;;2.06;41.96
47742;BME280;33504;52.066;6.096;2023-12-04T08:39:37;100809.36;;;2.40;41.73
47742;BME280;33504;52.066;6.096;2023-12-04T08:42:04;100798.39;;;1.93;42.42
47742;BME280;33504;52.066;6.096;2023-12-04T08:44:31;100791.49;;;1.95;42.34
47742;BME280;33504;52.066;6.096;2023-12-04T08:46:58;100795.20;;;1.62;43.06
47742;BME280;33504;52.066;6.096;2023-12-04T08:49:26;100791.21;;;1.87;42.73
47742;BME280;33504;52.066;6.096;2023-12-04T08:51:52;100788.45;;;1.83;42.39
47742;BME280;33504;52.066;6.096;2023-12-04T08:54:19;100786.97;;;2.10;42.53
47742;BME280;33504;52.066;6.096;2023-12-04T08:56:47;100784.67;;;2.31;42.43
47742;BME280;33504;52.066;6.096;2023-12-04T08:59:13;100781.67;;;2.10;42.17
47742;BME280;33504;52.066;6.096;2023-12-04T09:01:40;100769.19;;;2.45;41.88
47742;BME280;33504;52.066;6.096;2023-12-04T09:04:08;100769.82;;;2.27;42.04
47742;BME280;33504;52.066;6.096;2023-12-04T09:06:35;100769.71;;;2.47;41.79
47742;BME280;33504;52.066;6.096;2023-12-04T09:09:03;100764.61;;;2.86;41.32
47742;BME280;33504;52.066;6.096;2023-12-04T09:11:30;100765.07;;;2.97;41.59
47742;BME280;33504;52.066;6.096;2023-12-04T09:13:57;100771.24;;;2.97;41.44
47742;BME280;33504;52.066;6.096;2023-12-04T09:16:24;100766.90;;;2.62;42.00
47742;BME280;33504;52.066;6.096;2023-12-04T09:18:51;100763.89;;;2.88;41.27
47742;BME280;33504;52.066;6.096;2023-12-04T09:21:18;100758.36;;;3.15;41.54
47742;BME280;33504;52.066;6.096;2023-12-04T09:23:45;100757.16;;;2.98;41.17
47742;BME280;33504;52.066;6.096;2023-12-04T09:26:12;100757.32;;;3.15;41.57
47742;BME280;33504;52.066;6.096;2023-12-04T09:28:39;100755.44;;;3.36;40.83
47742;BME280;33504;52.066;6.096;2023-12-04T09:31:08;100754.03;;;3.12;41.36
47742;BME280;33504;52.066;6.096;2023-12-04T09:33:35;100752.61;;;3.39;41.71
47742;BME280;33504;52.066;6.096;2023-12-04T09:36:03;100745.69;;;3.08;41.38
47742;BME280;33504;52.066;6.096;2023-12-04T09:38:30;100741.52;;;3.38;41.34
47742;BME280;33504;52.066;6.096;2023-12-04T09:40:59;100741.92;;;3.36;41.96
47742;BME280;33504;52.066;6.096;2023-12-04T09:43:26;100741.91;;;3.50;41.32
47742;BME280;33504;52.066;6.096;2023-12-04T09:45:53;100742.06;;;3.45;41.07
47742;BME280;33504;52.066;6.096;2023-12-04T09:48:20;100740.85;;;3.20;40.94
47742;BME280;33504;52.066;6.096;2023-12-04T09:50:48;100736.40;;;3.02;41.13
47742;BME280;33504;52.066;6.096;2023-12-04T09:53:15;100738.80;;;3.81;41.37
47742;BME280;33504;52.066;6.096;2023-12-04T09:55:43;100738.67;;;3.49;41.72
47742;BME280;33504;52.066;6.096;2023-12-04T09:58:12;100738.32;;;3.35;41.56
47742;BME280;33504;52.066;6.096;2023-12-04T10:00:41;100738.55;;;3.53;41.19
47742;BME280;33504;52.066;6.096;2023-12-04T10:03:09;100740.39;;;2.98;41.10
47742;BME280;33504;52.066;6.096;2023-12-04T10:05:36;100736.60;;;3.32;41.27
47742;BME280;33504;52.066;6.096;2023-12-04T10:08:04;100735.29;;;3.64;41.15
47742;BME280;33504;52.066;6.096;2023-12-04T10:10:31;100735.00;;;3.88;41.26
47742;BME280;33504;52.066;6.096;2023-12-04T10:13:00;100729.57;;;3.38;40.96
47742;BME280;33504;52.066;6.096;2023-12-04T10:15:27;100726.04;;;3.62;41.35
47742;BME280;33504;52.066;6.096;2023-12-04T10:17:54;100719.90;;;3.75;40.72
47742;BME280;33504;52.066;6.096;2023-12-04T10:20:21;100715.08;;;3.73;40.88
47742;BME280;33504;52.066;6.096;2023-12-04T10:22:56;100714.37;;;3.79;40.48
47742;BME280;33504;52.066;6.096;2023-12-04T10:25:25;100706.11;;;3.41;41.21
47742;BME280;33504;52.066;6.096;2023-12-04T10:27:54;100703.42;;;3.34;41.04
47742;BME280;33504;52.066;6.096;2023-12-04T10:30:26;100704.63;;;3.45;40.92
47742;BME280;33504;52.066;6.096;2023-12-04T10:32:55;100699.81;;;4.02;40.88
47742;BME280;33504;52.066;6.096;2023-12-04T10:35:22;100695.85;;;3.66;41.79
47742;BME280;33504;52.066;6.096;2023-12-04T10:37:52;100692.79;;;4.24;41.41
47742;BME280;33504;52.066;6.096;2023-12-04T10:40:24;100688.46;;;3.42;41.29
47742;BME280;33504;52.066;6.096;2023-12-04T10:42:51;100682.33;;;3.57;41.41
47742;BME280;33504;52.066;6.096;2023-12-04T10:45:18;100679.32;;;3.95;41.38
47742;BME280;33504;52.066;6.096;2023-12-04T10:47:46;100676.00;;;4.24;41.23
47742;BME280;33504;52.066;6.096;2023-12-04T10:50:13;100675.54;;;3.81;41.34
47742;BME280;33504;52.066;6.096;2023-12-04T10:52:42;100671.50;;;3.73;40.60
47742;BME280;33504;52.066;6.096;2023-12-04T10:55:11;100667.99;;;3.66;40.67
47742;BME280;33504;52.066;6.096;2023-12-04T10:57:39;100668.78;;;3.50;40.95
47742;BME280;33504;52.066;6.096;2023-12-04T11:00:08;100669.82;;;3.68;40.46
47742;BME280;33504;52.066;6.096;2023-12-04T11:02:43;100664.12;;;3.99;41.21
47742;BME280;33504;52.066;6.096;2023-12-04T11:05:14;100657.73;;;3.60;41.36
47742;BME280;33504;52.066;6.096;2023-12-04T11:07:46;100654.74;;;3.76;41.49
47742;BME280;33504;52.066;6.096;2023-12-04T11:10:15;100647.24;;;4.12;40.51
47742;BME280;33504;52.066;6.096;2023-12-04T11:12:45;100643.11;;;3.82;40.39
47742;BME280;33504;52.066;6.096;2023-12-04T11:15:19;100639.61;;;3.76;40.21
47742;BME280;33504;52.066;6.096;2023-12-04T11:17:57;100636.45;;;3.88;40.70
47742;BME280;33504;52.066;6.096;2023-12-04T11:20:28;100630.81;;;4.19;40.56
47742;BME280;33504;52.066;6.096;2023-12-04T11:22:57;100630.10;;;3.93;40.13
47742;BME280;33504;52.066;6.096;2023-12-04T11:25:25;100624.88;;;4.41;40.08
47742;BME280;33504;52.066;6.096;2023-12-04T11:27:53;100620.79;;;4.25;39.77
47742;BME280;33504;52.066;6.096;2023-12-04T11:30:21;100620.48;;;4.56;39.32
47742;BME280;33504;52.066;6.096;2023-12-04T11:32:49;100618.79;;;4.17;39.46
47742;BME280;33504;52.066;6.096;2023-12-04T11:35:16;100613.11;;;4.23;40.16
47742;BME280;33504;52.066;6.096;2023-12-04T11:37:44;100615.07;;;4.57;39.97
47742;BME280;33504;52.066;6.096;2023-12-04T11:40:15;100609.53;;;4.35;39.53
47742;BME280;33504;52.066;6.096;2023-12-04T11:42:43;100608.37;;;3.77;40.68
47742;BME280;33504;52.066;6.096;2023-12-04T11:45:12;100604.34;;;4.43;40.09
47742;BME280;33504;52.066;6.096;2023-12-04T11:47:54;100602.47;;;4.19;39.47
47742;BME280;33504;52.066;6.096;2023-12-04T11:50:22;100598.82;;;4.42;39.88
47742;BME280;33504;52.066;6.096;2023-12-04T11:52:50;100594.20;;;3.85;40.99
47742;BME280;33504;52.066;6.096;2023-12-04T11:55:20;100586.95;;;3.87;39.53
47742;BME280;33504;52.066;6.096;2023-12-04T11:57:50;100586.63;;;3.88;39.64
47742;BME280;33504;52.066;6.096;2023-12-04T12:00:21;100581.98;;;4.09;39.65
47742;BME280;33504;52.066;6.096;2023-12-04T12:03:01;100578.61;;;4.40;39.58
47742;BME280;33504;52.066;6.096;2023-12-04T12:05:30;100571.10;;;4.09;39.14
47742;BME280;33504;52.066;6.096;2023-12-04T12:08:01;100565.39;;;3.54;39.21
47742;BME280;33504;52.066;6.096;2023-12-04T12:10:28;100564.55;;;4.11;39.39
47742;BME280;33504;52.066;6.096;2023-12-04T12:12:56;100561.41;;;4.06;39.20
47742;BME280;33504;52.066;6.096;2023-12-04T12:15:24;100559.06;;;3.80;39.68
47742;BME280;33504;52.066;6.096;2023-12-04T12:17:51;100556.03;;;4.05;39.41
47742;BME280;33504;52.066;6.096;2023-12-04T12:20:19;100554.20;;;4.08;39.66
47742;BME280;33504;52.066;6.096;2023-12-04T12:22:48;100550.74;;;3.67;39.90
47742;BME280;33504;52.066;6.096;2023-12-04T12:25:15;100552.88;;;3.52;39.77
47742;BME280;33504;52.066;6.096;2023-12-04T12:27:43;100547.95;;;3.66;39.34
47742;BME280;33504;52.066;6.096;2023-12-04T12:30:12;100547.14;;;4.10;39.62
47742;BME280;33504;52.066;6.096;2023-12-04T12:32:39;100538.60;;;3.79;39.94
47742;BME280;33504;52.066;6.096;2023-12-04T12:35:06;100539.67;;;4.05;40.17
47742;BME280;33504;52.066;6.096;2023-12-04T12:37:34;100538.71;;;4.22;39.28
47742;BME280;33504;52.066;6.096;2023-12-04T12:40:01;100538.02;;;4.17;39.36
47742;BME280;33504;52.066;6.096;2023-12-04T12:42:28;100530.73;;;4.47;39.04
47742;BME280;33504;52.066;6.096;2023-12-04T12:45:00;100526.28;;;3.62;39.37
47742;BME280;33504;52.066;6.096;2023-12-04T12:47:27;100516.87;;;3.92;39.97
47742;BME280;33504;52.066;6.096;2023-12-04T12:49:55;100515.40;;;4.19;39.75
47742;BME280;33504;52.066;6.096;2023-12-04T12:52:23;100513.13;;;4.17;39.14
47742;BME280;33504;52.066;6.096;2023-12-04T12:54:52;100508.44;;;4.68;39.36
47742;BME280;33504;52.066;6.096;2023-12-04T12:57:18;100506.58;;;4.29;38.40
47742;BME280;33504;52.066;6.096;2023-12-04T12:59:46;100502.58;;;4.37;39.26
47742;BME280;33504;52.066;6.096;2023-12-04T13:02:14;100495.42;;;4.49;38.54